sensor_id;sensor_type;location;lat;lon;timestamp;P1;durP1;ratioP1;P2;durP2;ratioP2
79480;SDS011;68944;48.262;14.208;2024-03-02T00:01:58;55.83;;;20.77;;
79480;SDS011;68944;48.262;14.208;2024-03-02T00:04:24;45.85;;;19.02;;
79480;SDS011;68944;48.262;14.208;2024-03-02T00:06:51;42.42;;;18.58;;
79480;SDS011;68944;48.262;14.208;2024-03-02T00:09:20;45.40;;;18.50;;
79480;SDS011;68944;48.262;14.208;2024-03-02T00:11:46;55.63;;;20.52;;
79480;SDS011;68944;48.262;14.208;2024-03-02T00:14:12;44.20;;;18.73;;
79480;SDS011;68944;48.262;14.208;2024-03-02T00:16:38;41.38;;;17.80;;
79480;SDS011;68944;48.262;14.208;2024-03-02T00:19:05;42.90;;;17.90;;
79480;SDS011;68944;48.262;14.208;2024-03-02T00:21:31;47.63;;;19.50;;
79480;SDS011;68944;48.262;14.208;2024-03-02T00:23:58;45.15;;;17.88;;
79480;SDS011;68944;48.262;14.208;2024-03-02T00:26:25;42.42;;;17.60;;
79480;SDS011;68944;48.262;14.208;2024-03-02T00:28:52;41.75;;;19.20;;
79480;SDS011;68944;48.262;14.208;2024-03-02T00:31:22;43.30;;;17.55;;
79480;SDS011;68944;48.262;14.208;2024-03-02T00:33:48;41.72;;;18.00;;
79480;SDS011;68944;48.262;14.208;2024-03-02T00:36:17;42.42;;;17.02;;
79480;SDS011;68944;48.262;14.208;2024-03-02T00:38:50;39.28;;;18.05;;
79480;SDS011;68944;48.262;14.208;2024-03-02T00:41:21;42.90;;;16.90;;
79480;SDS011;68944;48.262;14.208;2024-03-02T00:43:58;37.10;;;17.42;;
79480;SDS011;68944;48.262;14.208;2024-03-02T00:46:31;40.22;;;17.75;;
79480;SDS011;68944;48.262;14.208;2024-03-02T00:49:20;36.22;;;15.55;;
79480;SDS011;68944;48.262;14.208;2024-03-02T00:51:50;37.03;;;15.88;;
79480;SDS011;68944;48.262;14.208;2024-03-02T00:54:20;38.00;;;16.27;;
79480;SDS011;68944;48.262;14.208;2024-03-02T00:56:48;35.30;;;15.00;;
79480;SDS011;68944;48.262;14.208;2024-03-02T00:59:14;37.75;;;16.45;;
79480;SDS011;68944;48.262;14.208;2024-03-02T01:01:40;34.65;;;15.57;;
79480;SDS011;68944;48.262;14.208;2024-03-02T01:04:07;38.10;;;15.85;;
79480;SDS011;68944;48.262;14.208;2024-03-02T01:06:32;36.17;;;16.70;;
79480;SDS011;68944;48.262;14.208;2024-03-02T01:08:59;32.10;;;14.48;;
79480;SDS011;68944;48.262;14.208;2024-03-02T01:11:24;38.95;;;14.95;;
79480;SDS011;68944;48.262;14.208;2024-03-02T01:13:50;32.80;;;14.98;;
79480;SDS011;68944;48.262;14.208;2024-03-02T01:16:17;32.53;;;15.13;;
79480;SDS011;68944;48.262;14.208;2024-03-02T01:18:42;38.22;;;15.88;;
79480;SDS011;68944;48.262;14.208;2024-03-02T01:21:09;32.50;;;15.40;;
79480;SDS011;68944;48.262;14.208;2024-03-02T01:23:34;33.50;;;15.63;;
79480;SDS011;68944;48.262;14.208;2024-03-02T01:26:00;29.77;;;14.93;;
79480;SDS011;68944;48.262;14.208;2024-03-02T01:28:25;33.03;;;15.27;;
79480;SDS011;68944;48.262;14.208;2024-03-02T01:30:51;30.73;;;15.05;;
79480;SDS011;68944;48.262;14.208;2024-03-02T01:33:16;31.58;;;14.60;;
79480;SDS011;68944;48.262;14.208;2024-03-02T01:35:43;36.88;;;16.00;;
79480;SDS011;68944;48.262;14.208;2024-03-02T01:38:09;39.67;;;16.23;;
79480;SDS011;68944;48.262;14.208;2024-03-02T01:40:35;34.28;;;15.05;;
79480;SDS011;68944;48.262;14.208;2024-03-02T01:43:01;33.78;;;14.63;;
79480;SDS011;68944;48.262;14.208;2024-03-02T01:45:27;31.48;;;13.95;;
79480;SDS011;68944;48.262;14.208;2024-03-02T01:47:53;30.67;;;14.10;;
79480;SDS011;68944;48.262;14.208;2024-03-02T01:50:28;35.35;;;16.30;;
79480;SDS011;68944;48.262;14.208;2024-03-02T01:52:57;31.33;;;14.98;;
79480;SDS011;68944;48.262;14.208;2024-03-02T01:55:23;31.95;;;14.52;;
79480;SDS011;68944;48.262;14.208;2024-03-02T01:57:49;31.98;;;14.90;;
79480;SDS011;68944;48.262;14.208;2024-03-02T02:00:19;30.42;;;13.68;;
79480;SDS011;68944;48.262;14.208;2024-03-02T02:02:46;36.88;;;15.45;;
79480;SDS011;68944;48.262;14.208;2024-03-02T02:05:12;28.20;;;13.77;;
79480;SDS011;68944;48.262;14.208;2024-03-02T02:07:40;32.13;;;14.95;;
79480;SDS011;68944;48.262;14.208;2024-03-02T02:10:06;31.33;;;13.68;;
79480;SDS011;68944;48.262;14.208;2024-03-02T02:12:32;31.33;;;13.75;;
79480;SDS011;68944;48.262;14.208;2024-03-02T02:14:58;36.05;;;16.42;;
79480;SDS011;68944;48.262;14.208;2024-03-02T02:17:23;37.53;;;16.00;;
79480;SDS011;68944;48.262;14.208;2024-03-02T02:19:49;37.08;;;15.82;;
79480;SDS011;68944;48.262;14.208;2024-03-02T02:22:15;34.78;;;16.23;;
79480;SDS011;68944;48.262;14.208;2024-03-02T02:24:40;35.60;;;16.40;;
79480;SDS011;68944;48.262;14.208;2024-03-02T02:27:07;37.33;;;16.70;;
79480;SDS011;68944;48.262;14.208;2024-03-02T02:29:33;43.72;;;19.88;;
79480;SDS011;68944;48.262;14.208;2024-03-02T02:32:00;37.22;;;16.70;;
79480;SDS011;68944;48.262;14.208;2024-03-02T02:34:28;33.25;;;14.40;;
79480;SDS011;68944;48.262;14.208;2024-03-02T02:36:54;34.75;;;16.80;;
79480;SDS011;68944;48.262;14.208;2024-03-02T02:39:21;43.33;;;18.92;;
79480;SDS011;68944;48.262;14.208;2024-03-02T02:41:50;34.60;;;16.38;;
79480;SDS011;68944;48.262;14.208;2024-03-02T02:44:15;34.67;;;14.88;;
79480;SDS011;68944;48.262;14.208;2024-03-02T02:46:41;36.10;;;15.80;;
79480;SDS011;68944;48.262;14.208;2024-03-02T02:49:06;40.60;;;15.77;;
79480;SDS011;68944;48.262;14.208;2024-03-02T02:51:32;35.90;;;15.23;;
79480;SDS011;68944;48.262;14.208;2024-03-02T02:53:58;34.22;;;15.70;;
79480;SDS011;68944;48.262;14.208;2024-03-02T02:56:24;35.47;;;16.13;;
79480;SDS011;68944;48.262;14.208;2024-03-02T02:58:49;34.63;;;14.65;;
79480;SDS011;68944;48.262;14.208;2024-03-02T03:01:15;45.00;;;17.85;;
79480;SDS011;68944;48.262;14.208;2024-03-02T03:03:45;36.35;;;16.38;;
79480;SDS011;68944;48.262;14.208;2024-03-02T03:06:11;39.15;;;16.52;;
79480;SDS011;68944;48.262;14.208;2024-03-02T03:08:37;41.05;;;17.25;;
79480;SDS011;68944;48.262;14.208;2024-03-02T03:11:03;37.60;;;16.05;;
79480;SDS011;68944;48.262;14.208;2024-03-02T03:13:30;35.15;;;15.90;;
79480;SDS011;68944;48.262;14.208;2024-03-02T03:15:59;35.65;;;17.10;;
79480;SDS011;68944;48.262;14.208;2024-03-02T03:18:24;40.55;;;16.80;;
79480;SDS011;68944;48.262;14.208;2024-03-02T03:20:50;37.97;;;16.55;;
79480;SDS011;68944;48.262;14.208;2024-03-02T03:23:16;39.00;;;17.48;;
79480;SDS011;68944;48.262;14.208;2024-03-02T03:25:42;32.63;;;15.18;;
79480;SDS011;68944;48.262;14.208;2024-03-02T03:28:09;39.78;;;16.52;;
79480;SDS011;68944;48.262;14.208;2024-03-02T03:30:38;36.22;;;17.00;;
79480;SDS011;68944;48.262;14.208;2024-03-02T03:33:04;41.30;;;17.45;;
79480;SDS011;68944;48.262;14.208;2024-03-02T03:37:58;34.88;;;15.20;;
79480;SDS011;68944;48.262;14.208;2024-03-02T03:40:24;37.70;;;17.30;;
79480;SDS011;68944;48.262;14.208;2024-03-02T03:42:49;37.90;;;14.82;;
79480;SDS011;68944;48.262;14.208;2024-03-02T03:45:15;40.78;;;16.92;;
79480;SDS011;68944;48.262;14.208;2024-03-02T03:47:42;45.17;;;16.98;;
79480;SDS011;68944;48.262;14.208;2024-03-02T03:50:08;43.75;;;17.73;;
79480;SDS011;68944;48.262;14.208;2024-03-02T03:52:34;37.88;;;15.88;;
79480;SDS011;68944;48.262;14.208;2024-03-02T03:55:00;43.17;;;16.58;;
79480;SDS011;68944;48.262;14.208;2024-03-02T03:57:26;34.70;;;15.55;;
79480;SDS011;68944;48.262;14.208;2024-03-02T03:59:52;37.40;;;16.33;;
79480;SDS011;68944;48.262;14.208;2024-03-02T04:02:18;37.70;;;15.38;;
79480;SDS011;68944;48.262;14.208;2024-03-02T04:04:43;34.97;;;15.40;;
79480;SDS011;68944;48.262;14.208;2024-03-02T04:07:09;33.85;;;15.43;;
79480;SDS011;68944;48.262;14.208;2024-03-02T04:09:34;36.83;;;15.90;;
79480;SDS011;68944;48.262;14.208;2024-03-02T04:12:00;30.08;;;14.68;;
79480;SDS011;68944;48.262;14.208;2024-03-02T04:14:26;37.03;;;15.85;;
79480;SDS011;68944;48.262;14.208;2024-03-02T04:16:51;35.55;;;15.38;;
79480;SDS011;68944;48.262;14.208;2024-03-02T04:19:17;43.58;;;17.50;;
79480;SDS011;68944;48.262;14.208;2024-03-02T04:21:42;34.17;;;15.98;;
79480;SDS011;68944;48.262;14.208;2024-03-02T04:24:08;37.00;;;17.58;;
79480;SDS011;68944;48.262;14.208;2024-03-02T04:26:33;37.65;;;15.88;;
79480;SDS011;68944;48.262;14.208;2024-03-02T04:28:59;30.15;;;15.32;;
79480;SDS011;68944;48.262;14.208;2024-03-02T04:31:24;55.85;;;20.70;;
79480;SDS011;68944;48.262;14.208;2024-03-02T04:33:50;45.33;;;18.38;;
79480;SDS011;68944;48.262;14.208;2024-03-02T04:36:15;36.95;;;16.50;;
79480;SDS011;68944;48.262;14.208;2024-03-02T04:38:41;30.95;;;14.38;;
79480;SDS011;68944;48.262;14.208;2024-03-02T04:41:06;30.27;;;13.73;;
79480;SDS011;68944;48.262;14.208;2024-03-02T04:43:32;32.70;;;14.98;;
79480;SDS011;68944;48.262;14.208;2024-03-02T04:45:59;34.85;;;15.85;;
79480;SDS011;68944;48.262;14.208;2024-03-02T04:48:25;32.63;;;14.10;;
79480;SDS011;68944;48.262;14.208;2024-03-02T04:50:50;33.00;;;16.10;;
79480;SDS011;68944;48.262;14.208;2024-03-02T04:53:16;36.20;;;15.00;;
79480;SDS011;68944;48.262;14.208;2024-03-02T04:55:42;34.38;;;15.80;;
79480;SDS011;68944;48.262;14.208;2024-03-02T04:58:07;31.92;;;14.85;;
79480;SDS011;68944;48.262;14.208;2024-03-02T05:00:33;33.90;;;14.80;;
79480;SDS011;68944;48.262;14.208;2024-03-02T05:02:59;35.35;;;16.23;;
79480;SDS011;68944;48.262;14.208;2024-03-02T05:05:25;37.22;;;15.48;;
79480;SDS011;68944;48.262;14.208;2024-03-02T05:07:51;34.65;;;15.30;;
79480;SDS011;68944;48.262;14.208;2024-03-02T05:10:17;37.20;;;16.25;;
79480;SDS011;68944;48.262;14.208;2024-03-02T05:12:42;34.47;;;15.38;;
79480;SDS011;68944;48.262;14.208;2024-03-02T05:15:09;37.42;;;14.43;;
79480;SDS011;68944;48.262;14.208;2024-03-02T05:17:36;36.78;;;14.50;;
79480;SDS011;68944;48.262;14.208;2024-03-02T05:20:06;35.13;;;16.15;;
79480;SDS011;68944;48.262;14.208;2024-03-02T05:22:35;37.85;;;14.68;;
79480;SDS011;68944;48.262;14.208;2024-03-02T05:25:05;35.05;;;14.20;;
79480;SDS011;68944;48.262;14.208;2024-03-02T05:27:32;33.70;;;15.45;;
79480;SDS011;68944;48.262;14.208;2024-03-02T05:29:58;34.70;;;15.07;;
79480;SDS011;68944;48.262;14.208;2024-03-02T05:32:25;34.17;;;14.68;;
79480;SDS011;68944;48.262;14.208;2024-03-02T05:34:50;36.33;;;15.07;;
79480;SDS011;68944;48.262;14.208;2024-03-02T05:37:16;31.40;;;14.00;;
79480;SDS011;68944;48.262;14.208;2024-03-02T05:39:42;34.20;;;15.68;;
79480;SDS011;68944;48.262;14.208;2024-03-02T05:42:12;34.17;;;15.15;;
79480;SDS011;68944;48.262;14.208;2024-03-02T05:44:37;34.40;;;15.70;;
79480;SDS011;68944;48.262;14.208;2024-03-02T05:47:03;35.33;;;15.27;;
79480;SDS011;68944;48.262;14.208;2024-03-02T05:49:29;32.40;;;15.13;;
79480;SDS011;68944;48.262;14.208;2024-03-02T05:51:55;32.92;;;14.73;;
79480;SDS011;68944;48.262;14.208;2024-03-02T05:54:21;35.47;;;15.70;;
79480;SDS011;68944;48.262;14.208;2024-03-02T05:56:47;35.63;;;14.50;;
79480;SDS011;68944;48.262;14.208;2024-03-02T05:59:12;37.50;;;16.45;;
79480;SDS011;68944;48.262;14.208;2024-03-02T06:01:44;33.75;;;14.20;;
79480;SDS011;68944;48.262;14.208;2024-03-02T06:04:11;33.00;;;15.30;;
79480;SDS011;68944;48.262;14.208;2024-03-02T06:06:38;36.95;;;15.63;;
79480;SDS011;68944;48.262;14.208;2024-03-02T06:09:04;37.40;;;15.13;;
79480;SDS011;68944;48.262;14.208;2024-03-02T06:11:36;36.75;;;16.88;;
79480;SDS011;68944;48.262;14.208;2024-03-02T06:14:02;34.25;;;16.33;;
79480;SDS011;68944;48.262;14.208;2024-03-02T06:16:31;32.85;;;15.25;;
79480;SDS011;68944;48.262;14.208;2024-03-02T06:18:57;32.97;;;16.23;;
79480;SDS011;68944;48.262;14.208;2024-03-02T06:21:23;33.08;;;15.70;;
79480;SDS011;68944;48.262;14.208;2024-03-02T06:23:49;34.25;;;15.63;;
79480;SDS011;68944;48.262;14.208;2024-03-02T06:26:15;34.83;;;15.55;;
79480;SDS011;68944;48.262;14.208;2024-03-02T06:28:40;36.72;;;16.75;;
79480;SDS011;68944;48.262;14.208;2024-03-02T06:31:06;36.08;;;16.15;;
79480;SDS011;68944;48.262;14.208;2024-03-02T06:33:32;35.33;;;15.70;;
79480;SDS011;68944;48.262;14.208;2024-03-02T06:35:57;35.63;;;16.63;;
79480;SDS011;68944;48.262;14.208;2024-03-02T06:38:23;33.55;;;14.52;;
79480;SDS011;68944;48.262;14.208;2024-03-02T06:40:48;36.38;;;15.35;;
79480;SDS011;68944;48.262;14.208;2024-03-02T06:43:14;44.10;;;16.80;;
79480;SDS011;68944;48.262;14.208;2024-03-02T06:45:40;39.30;;;16.27;;
79480;SDS011;68944;48.262;14.208;2024-03-02T06:48:06;40.88;;;16.65;;
79480;SDS011;68944;48.262;14.208;2024-03-02T06:50:32;34.85;;;16.00;;
79480;SDS011;68944;48.262;14.208;2024-03-02T06:52:58;44.88;;;15.98;;
79480;SDS011;68944;48.262;14.208;2024-03-02T06:55:24;37.40;;;17.73;;
79480;SDS011;68944;48.262;14.208;2024-03-02T06:57:50;40.35;;;17.20;;
79480;SDS011;68944;48.262;14.208;2024-03-02T07:00:17;37.00;;;17.85;;
79480;SDS011;68944;48.262;14.208;2024-03-02T07:02:43;40.80;;;17.83;;
79480;SDS011;68944;48.262;14.208;2024-03-02T07:05:09;38.17;;;17.35;;
79480;SDS011;68944;48.262;14.208;2024-03-02T07:07:36;38.42;;;17.38;;
79480;SDS011;68944;48.262;14.208;2024-03-02T07:10:03;34.50;;;15.18;;
79480;SDS011;68944;48.262;14.208;2024-03-02T07:12:29;36.92;;;16.60;;
79480;SDS011;68944;48.262;14.208;2024-03-02T07:14:56;38.28;;;16.77;;
79480;SDS011;68944;48.262;14.208;2024-03-02T07:17:36;39.42;;;15.57;;
79480;SDS011;68944;48.262;14.208;2024-03-02T07:20:02;44.38;;;16.50;;
79480;SDS011;68944;48.262;14.208;2024-03-02T07:22:32;36.15;;;16.60;;
79480;SDS011;68944;48.262;14.208;2024-03-02T07:24:58;38.17;;;18.13;;
79480;SDS011;68944;48.262;14.208;2024-03-02T07:27:24;38.60;;;17.60;;
79480;SDS011;68944;48.262;14.208;2024-03-02T07:29:49;41.78;;;18.45;;
79480;SDS011;68944;48.262;14.208;2024-03-02T07:32:15;37.60;;;17.88;;
79480;SDS011;68944;48.262;14.208;2024-03-02T07:34:41;35.80;;;17.85;;
79480;SDS011;68944;48.262;14.208;2024-03-02T07:37:06;36.08;;;17.45;;
79480;SDS011;68944;48.262;14.208;2024-03-02T07:39:32;39.15;;;16.52;;
79480;SDS011;68944;48.262;14.208;2024-03-02T07:41:58;36.17;;;16.40;;
79480;SDS011;68944;48.262;14.208;2024-03-02T07:44:25;38.33;;;17.00;;
79480;SDS011;68944;48.262;14.208;2024-03-02T07:46:50;35.25;;;16.52;;
79480;SDS011;68944;48.262;14.208;2024-03-02T07:49:16;43.15;;;16.70;;
79480;SDS011;68944;48.262;14.208;2024-03-02T07:51:42;34.22;;;16.75;;
79480;SDS011;68944;48.262;14.208;2024-03-02T07:54:08;37.58;;;17.60;;
79480;SDS011;68944;48.262;14.208;2024-03-02T07:56:34;38.70;;;16.02;;
79480;SDS011;68944;48.262;14.208;2024-03-02T07:59:01;44.13;;;18.10;;
79480;SDS011;68944;48.262;14.208;2024-03-02T08:01:28;38.13;;;16.75;;
79480;SDS011;68944;48.262;14.208;2024-03-02T08:04:01;33.22;;;16.20;;
79480;SDS011;68944;48.262;14.208;2024-03-02T08:06:29;36.78;;;15.25;;
79480;SDS011;68944;48.262;14.208;2024-03-02T08:08:55;40.13;;;17.90;;
79480;SDS011;68944;48.262;14.208;2024-03-02T08:11:21;36.85;;;16.70;;
79480;SDS011;68944;48.262;14.208;2024-03-02T08:13:47;36.58;;;15.65;;
79480;SDS011;68944;48.262;14.208;2024-03-02T08:16:17;34.55;;;15.73;;
79480;SDS011;68944;48.262;14.208;2024-03-02T08:18:49;38.08;;;16.95;;
79480;SDS011;68944;48.262;14.208;2024-03-02T08:21:15;39.95;;;16.33;;
79480;SDS011;68944;48.262;14.208;2024-03-02T08:23:40;40.08;;;16.60;;
79480;SDS011;68944;48.262;14.208;2024-03-02T08:26:07;39.53;;;16.08;;
79480;SDS011;68944;48.262;14.208;2024-03-02T08:28:34;36.70;;;16.73;;
79480;SDS011;68944;48.262;14.208;2024-03-02T08:30:59;38.40;;;17.08;;
79480;SDS011;68944;48.262;14.208;2024-03-02T08:33:25;36.00;;;16.20;;
79480;SDS011;68944;48.262;14.208;2024-03-02T08:35:51;35.58;;;16.50;;
79480;SDS011;68944;48.262;14.208;2024-03-02T08:38:16;40.30;;;17.67;;
79480;SDS011;68944;48.262;14.208;2024-03-02T08:40:42;34.85;;;15.63;;
79480;SDS011;68944;48.262;14.208;2024-03-02T08:43:09;36.53;;;16.38;;
79480;SDS011;68944;48.262;14.208;2024-03-02T08:45:35;41.55;;;18.33;;
79480;SDS011;68944;48.262;14.208;2024-03-02T08:48:01;40.72;;;16.83;;
79480;SDS011;68944;48.262;14.208;2024-03-02T08:50:26;39.90;;;17.92;;
79480;SDS011;68944;48.262;14.208;2024-03-02T08:52:52;37.47;;;16.33;;
79480;SDS011;68944;48.262;14.208;2024-03-02T08:55:17;40.97;;;16.25;;
79480;SDS011;68944;48.262;14.208;2024-03-02T08:57:43;38.70;;;16.52;;
79480;SDS011;68944;48.262;14.208;2024-03-02T09:00:08;35.88;;;16.67;;
79480;SDS011;68944;48.262;14.208;2024-03-02T09:02:34;40.47;;;17.90;;
79480;SDS011;68944;48.262;14.208;2024-03-02T09:05:00;41.17;;;17.38;;
79480;SDS011;68944;48.262;14.208;2024-03-02T09:07:26;42.05;;;16.98;;
79480;SDS011;68944;48.262;14.208;2024-03-02T09:09:51;43.38;;;18.52;;
79480;SDS011;68944;48.262;14.208;2024-03-02T09:12:17;39.75;;;17.33;;
79480;SDS011;68944;48.262;14.208;2024-03-02T09:14:44;35.08;;;16.45;;
79480;SDS011;68944;48.262;14.208;2024-03-02T09:17:10;37.38;;;17.67;;
79480;SDS011;68944;48.262;14.208;2024-03-02T09:19:37;43.58;;;17.30;;
79480;SDS011;68944;48.262;14.208;2024-03-02T09:22:03;42.50;;;17.05;;
79480;SDS011;68944;48.262;14.208;2024-03-02T09:24:30;41.85;;;18.45;;
79480;SDS011;68944;48.262;14.208;2024-03-02T09:27:00;34.70;;;15.93;;
79480;SDS011;68944;48.262;14.208;2024-03-02T09:29:26;35.22;;;17.13;;
79480;SDS011;68944;48.262;14.208;2024-03-02T09:31:51;40.70;;;17.20;;
79480;SDS011;68944;48.262;14.208;2024-03-02T09:34:17;40.67;;;17.40;;
79480;SDS011;68944;48.262;14.208;2024-03-02T09:36:43;42.00;;;17.58;;
79480;SDS011;68944;48.262;14.208;2024-03-02T09:39:08;40.88;;;18.45;;
79480;SDS011;68944;48.262;14.208;2024-03-02T09:41:35;42.63;;;18.05;;
79480;SDS011;68944;48.262;14.208;2024-03-02T09:44:02;42.03;;;18.83;;
79480;SDS011;68944;48.262;14.208;2024-03-02T09:46:29;35.65;;;16.40;;
79480;SDS011;68944;48.262;14.208;2024-03-02T09:48:55;40.50;;;18.63;;
79480;SDS011;68944;48.262;14.208;2024-03-02T09:51:21;45.13;;;17.40;;
79480;SDS011;68944;48.262;14.208;2024-03-02T09:53:46;38.53;;;18.25;;
79480;SDS011;68944;48.262;14.208;2024-03-02T09:56:12;40.47;;;18.67;;
79480;SDS011;68944;48.262;14.208;2024-03-02T09:58:38;40.17;;;18.80;;
79480;SDS011;68944;48.262;14.208;2024-03-02T10:01:07;41.05;;;17.67;;
79480;SDS011;68944;48.262;14.208;2024-03-02T10:03:36;36.83;;;16.60;;
79480;SDS011;68944;48.262;14.208;2024-03-02T10:06:21;37.80;;;17.08;;
79480;SDS011;68944;48.262;14.208;2024-03-02T10:08:48;34.70;;;14.75;;
79480;SDS011;68944;48.262;14.208;2024-03-02T10:11:35;37.90;;;16.75;;
79480;SDS011;68944;48.262;14.208;2024-03-02T10:14:08;33.65;;;14.40;;
79480;SDS011;68944;48.262;14.208;2024-03-02T10:16:37;33.17;;;15.27;;
79480;SDS011;68944;48.262;14.208;2024-03-02T10:19:22;42.78;;;17.15;;
79480;SDS011;68944;48.262;14.208;2024-03-02T10:21:54;35.15;;;15.48;;
79480;SDS011;68944;48.262;14.208;2024-03-02T10:24:22;30.85;;;14.60;;
79480;SDS011;68944;48.262;14.208;2024-03-02T10:26:48;34.80;;;15.18;;
79480;SDS011;68944;48.262;14.208;2024-03-02T10:29:14;30.02;;;14.70;;
79480;SDS011;68944;48.262;14.208;2024-03-02T10:31:41;36.65;;;16.40;;
79480;SDS011;68944;48.262;14.208;2024-03-02T10:34:08;36.25;;;16.27;;
79480;SDS011;68944;48.262;14.208;2024-03-02T10:36:35;31.40;;;15.48;;
79480;SDS011;68944;48.262;14.208;2024-03-02T10:39:05;35.80;;;16.05;;
79480;SDS011;68944;48.262;14.208;2024-03-02T10:41:33;36.97;;;16.60;;
79480;SDS011;68944;48.262;14.208;2024-03-02T10:44:04;34.58;;;15.25;;
79480;SDS011;68944;48.262;14.208;2024-03-02T10:46:32;32.67;;;15.02;;
79480;SDS011;68944;48.262;14.208;2024-03-02T10:49:03;33.38;;;15.57;;
79480;SDS011;68944;48.262;14.208;2024-03-02T10:51:32;32.45;;;14.93;;
79480;SDS011;68944;48.262;14.208;2024-03-02T10:53:59;33.35;;;15.27;;
79480;SDS011;68944;48.262;14.208;2024-03-02T10:56:41;29.98;;;14.50;;
79480;SDS011;68944;48.262;14.208;2024-03-02T11:01:47;33.08;;;16.30;;
79480;SDS011;68944;48.262;14.208;2024-03-02T11:04:15;30.52;;;16.17;;
79480;SDS011;68944;48.262;14.208;2024-03-02T11:06:49;33.15;;;16.45;;
79480;SDS011;68944;48.262;14.208;2024-03-02T11:09:19;30.63;;;15.10;;
79480;SDS011;68944;48.262;14.208;2024-03-02T11:11:54;34.97;;;16.83;;
79480;SDS011;68944;48.262;14.208;2024-03-02T11:14:27;35.70;;;16.63;;
79480;SDS011;68944;48.262;14.208;2024-03-02T11:16:55;32.30;;;15.82;;
79480;SDS011;68944;48.262;14.208;2024-03-02T11:19:21;34.42;;;16.80;;
79480;SDS011;68944;48.262;14.208;2024-03-02T11:21:48;32.25;;;14.70;;
79480;SDS011;68944;48.262;14.208;2024-03-02T11:27:08;30.20;;;13.70;;
79480;SDS011;68944;48.262;14.208;2024-03-02T11:35:01;40.67;;;17.40;;
79480;SDS011;68944;48.262;14.208;2024-03-02T11:37:27;39.83;;;16.05;;
79480;SDS011;68944;48.262;14.208;2024-03-02T11:39:53;36.97;;;16.33;;
79480;SDS011;68944;48.262;14.208;2024-03-02T11:42:18;38.58;;;17.15;;
79480;SDS011;68944;48.262;14.208;2024-03-02T11:44:45;36.60;;;17.08;;
79480;SDS011;68944;48.262;14.208;2024-03-02T11:47:12;37.55;;;17.55;;
79480;SDS011;68944;48.262;14.208;2024-03-02T11:52:14;35.65;;;17.02;;
79480;SDS011;68944;48.262;14.208;2024-03-02T11:54:42;38.03;;;17.02;;
79480;SDS011;68944;48.262;14.208;2024-03-02T11:57:15;33.65;;;15.82;;
79480;SDS011;68944;48.262;14.208;2024-03-02T11:59:43;37.85;;;17.33;;
79480;SDS011;68944;48.262;14.208;2024-03-02T12:02:14;31.88;;;15.30;;
79480;SDS011;68944;48.262;14.208;2024-03-02T12:04:45;32.50;;;16.50;;
79480;SDS011;68944;48.262;14.208;2024-03-02T12:07:12;35.88;;;17.95;;
79480;SDS011;68944;48.262;14.208;2024-03-02T12:09:45;36.88;;;16.55;;
79480;SDS011;68944;48.262;14.208;2024-03-02T12:12:11;36.72;;;16.10;;
79480;SDS011;68944;48.262;14.208;2024-03-02T12:14:39;34.95;;;15.65;;
79480;SDS011;68944;48.262;14.208;2024-03-02T12:17:05;29.80;;;14.82;;
79480;SDS011;68944;48.262;14.208;2024-03-02T12:19:31;29.15;;;14.40;;
79480;SDS011;68944;48.262;14.208;2024-03-02T12:21:58;30.42;;;16.02;;
79480;SDS011;68944;48.262;14.208;2024-03-02T12:24:26;29.35;;;15.25;;
79480;SDS011;68944;48.262;14.208;2024-03-02T12:26:53;35.08;;;16.45;;
79480;SDS011;68944;48.262;14.208;2024-03-02T12:29:19;30.90;;;14.60;;
79480;SDS011;68944;48.262;14.208;2024-03-02T12:31:49;29.70;;;13.73;;
79480;SDS011;68944;48.262;14.208;2024-03-02T12:34:18;28.15;;;13.85;;
79480;SDS011;68944;48.262;14.208;2024-03-02T12:36:45;29.20;;;14.90;;
79480;SDS011;68944;48.262;14.208;2024-03-02T12:39:15;29.20;;;13.88;;
79480;SDS011;68944;48.262;14.208;2024-03-02T12:41:41;31.73;;;15.38;;
79480;SDS011;68944;48.262;14.208;2024-03-02T12:44:07;36.58;;;17.58;;
79480;SDS011;68944;48.262;14.208;2024-03-02T12:46:33;39.63;;;18.35;;
79480;SDS011;68944;48.262;14.208;2024-03-02T12:49:07;38.63;;;17.90;;
79480;SDS011;68944;48.262;14.208;2024-03-02T12:51:38;43.40;;;19.35;;
79480;SDS011;68944;48.262;14.208;2024-03-02T12:54:08;49.22;;;20.13;;
79480;SDS011;68944;48.262;14.208;2024-03-02T12:56:35;42.28;;;18.95;;
79480;SDS011;68944;48.262;14.208;2024-03-02T12:59:04;39.92;;;16.70;;
79480;SDS011;68944;48.262;14.208;2024-03-02T13:01:30;34.10;;;16.10;;
79480;SDS011;68944;48.262;14.208;2024-03-02T13:03:57;29.58;;;15.20;;
79480;SDS011;68944;48.262;14.208;2024-03-02T13:06:23;27.67;;;13.40;;
79480;SDS011;68944;48.262;14.208;2024-03-02T13:08:49;25.48;;;12.40;;
79480;SDS011;68944;48.262;14.208;2024-03-02T13:11:15;23.33;;;12.18;;
79480;SDS011;68944;48.262;14.208;2024-03-02T13:13:42;25.73;;;11.85;;
79480;SDS011;68944;48.262;14.208;2024-03-02T13:16:11;21.90;;;11.32;;
79480;SDS011;68944;48.262;14.208;2024-03-02T13:18:40;19.60;;;10.02;;
79480;SDS011;68944;48.262;14.208;2024-03-02T13:21:07;19.00;;;10.05;;
79480;SDS011;68944;48.262;14.208;2024-03-02T13:23:33;20.50;;;10.68;;
79480;SDS011;68944;48.262;14.208;2024-03-02T13:25:59;24.10;;;12.13;;
79480;SDS011;68944;48.262;14.208;2024-03-02T13:28:26;24.63;;;12.05;;
79480;SDS011;68944;48.262;14.208;2024-03-02T13:30:52;20.42;;;10.30;;
79480;SDS011;68944;48.262;14.208;2024-03-02T13:33:18;21.00;;;10.73;;
79480;SDS011;68944;48.262;14.208;2024-03-02T13:35:53;24.88;;;10.85;;
79480;SDS011;68944;48.262;14.208;2024-03-02T13:38:19;18.92;;;9.93;;
79480;SDS011;68944;48.262;14.208;2024-03-02T13:40:46;19.35;;;9.40;;
79480;SDS011;68944;48.262;14.208;2024-03-02T13:43:16;17.42;;;9.45;;
79480;SDS011;68944;48.262;14.208;2024-03-02T13:45:42;19.33;;;9.57;;
79480;SDS011;68944;48.262;14.208;2024-03-02T13:48:07;16.48;;;9.27;;
79480;SDS011;68944;48.262;14.208;2024-03-02T13:50:33;17.83;;;9.32;;
79480;SDS011;68944;48.262;14.208;2024-03-02T13:52:58;17.75;;;8.32;;
79480;SDS011;68944;48.262;14.208;2024-03-02T13:55:24;16.15;;;8.60;;
79480;SDS011;68944;48.262;14.208;2024-03-02T13:57:50;19.27;;;10.15;;
79480;SDS011;68944;48.262;14.208;2024-03-02T14:00:16;17.85;;;9.07;;
79480;SDS011;68944;48.262;14.208;2024-03-02T14:02:43;18.33;;;8.82;;
79480;SDS011;68944;48.262;14.208;2024-03-02T14:05:09;17.50;;;9.00;;
79480;SDS011;68944;48.262;14.208;2024-03-02T14:07:40;17.48;;;8.27;;
79480;SDS011;68944;48.262;14.208;2024-03-02T14:10:06;16.27;;;8.85;;
79480;SDS011;68944;48.262;14.208;2024-03-02T14:12:32;16.40;;;8.77;;
79480;SDS011;68944;48.262;14.208;2024-03-02T14:14:58;18.25;;;8.07;;
79480;SDS011;68944;48.262;14.208;2024-03-02T14:17:24;17.05;;;8.80;;
79480;SDS011;68944;48.262;14.208;2024-03-02T14:19:50;17.25;;;8.90;;
79480;SDS011;68944;48.262;14.208;2024-03-02T14:22:18;18.00;;;9.45;;
79480;SDS011;68944;48.262;14.208;2024-03-02T14:24:47;17.98;;;9.13;;